sensor_id;sensor_type;location;lat;lon;timestamp;pressure;altitude;pressure_sealevel;temperature;humidity
3260;BME280;68938;48.150;14.004;2023-04-27T00:01:15;98177.31;;;10.99;61.72
3260;BME280;68938;48.150;14.004;2023-04-27T00:03:42;98187.72;;;10.94;62.60
3260;BME280;68938;48.150;14.004;2023-04-27T00:06:09;98176.66;;;10.92;62.97
3260;BME280;68938;48.150;14.004;2023-04-27T00:08:36;98177.59;;;10.89;62.66
3260;BME280;68938;48.150;14.004;2023-04-27T00:11:03;98171.63;;;10.89;63.15
3260;BME280;68938;48.150;14.004;2023-04-27T00:13:30;98166.47;;;10.89;62.98
3260;BME280;68938;48.150;14.004;2023-04-27T00:15:59;98154.72;;;10.82;63.54
3260;BME280;68938;48.150;14.004;2023-04-27T00:18:26;98164.75;;;10.89;63.01
3260;BME280;68938;48.150;14.004;2023-04-27T00:20:53;98161.41;;;10.87;63.31
3260;BME280;68938;48.150;14.004;2023-04-27T00:23:20;98165.69;;;10.87;63.04
3260;BME280;68938;48.150;14.004;2023-04-27T00:25:47;98166.53;;;10.87;62.84
3260;BME280;68938;48.150;14.004;2023-04-27T00:28:14;98161.44;;;10.86;63.24
3260;BME280;68938;48.150;14.004;2023-04-27T00:30:41;98160.66;;;10.84;63.14
3260;BME280;68938;48.150;14.004;2023-04-27T00:33:08;98164.84;;;10.86;63.39
3260;BME280;68938;48.150;14.004;2023-04-27T00:35:35;98163.97;;;10.87;63.31
3260;BME280;68938;48.150;14.004;2023-04-27T00:38:02;98159.72;;;10.86;63.24
3260;BME280;68938;48.150;14.004;2023-04-27T00:40:29;98161.34;;;10.89;63.08
3260;BME280;68938;48.150;14.004;2023-04-27T00:42:56;98151.25;;;10.84;63.06
3260;BME280;68938;48.150;14.004;2023-04-27T00:45:23;98160.47;;;10.90;63.04
3260;BME280;68938;48.150;14.004;2023-04-27T00:47:50;98153.72;;;10.87;62.88
3260;BME280;68938;48.150;14.004;2023-04-27T00:50:28;98152.81;;;10.88;62.69
3260;BME280;68938;48.150;14.004;2023-04-27T00:52:55;98155.22;;;10.93;62.75
3260;BME280;68938;48.150;14.004;2023-04-27T00:55:23;98154.47;;;10.91;62.58
3260;BME280;68938;48.150;14.004;2023-04-27T00:57:50;98150.16;;;10.91;62.46
3260;BME280;68938;48.150;14.004;2023-04-27T01:00:17;98149.31;;;10.91;62.90
3260;BME280;68938;48.150;14.004;2023-04-27T01:02:44;98151.75;;;10.96;62.61
3260;BME280;68938;48.150;14.004;2023-04-27T01:05:12;98153.50;;;10.94;63.00
3260;BME280;68938;48.150;14.004;2023-04-27T01:07:39;98152.72;;;10.91;63.20
3260;BME280;68938;48.150;14.004;2023-04-27T01:10:07;98140.16;;;10.84;63.15
3260;BME280;68938;48.150;14.004;2023-04-27T01:12:34;98141.75;;;10.86;63.51
3260;BME280;68938;48.150;14.004;2023-04-27T01:15:01;98138.25;;;10.89;63.74
3260;BME280;68938;48.150;14.004;2023-04-27T01:17:28;98151.03;;;10.90;63.66
3260;BME280;68938;48.150;14.004;2023-04-27T01:19:55;98153.59;;;10.90;64.01
3260;BME280;68938;48.150;14.004;2023-04-27T01:22:22;98155.22;;;10.93;64.17
3260;BME280;68938;48.150;14.004;2023-04-27T01:24:49;98153.41;;;10.97;63.95
3260;BME280;68938;48.150;14.004;2023-04-27T01:27:16;98152.53;;;10.98;63.71
3260;BME280;68938;48.150;14.004;2023-04-27T01:29:43;98158.50;;;10.98;63.61
3260;BME280;68938;48.150;14.004;2023-04-27T01:32:10;98164.66;;;10.93;63.63
3260;BME280;68938;48.150;14.004;2023-04-27T01:34:37;98154.50;;;10.89;63.41
3260;BME280;68938;48.150;14.004;2023-04-27T01:37:04;98159.53;;;10.93;63.27
3260;BME280;68938;48.150;14.004;2023-04-27T01:39:31;98161.28;;;10.90;63.88
3260;BME280;68938;48.150;14.004;2023-04-27T01:41:58;98166.41;;;10.92;63.76
3260;BME280;68938;48.150;14.004;2023-04-27T01:44:25;98174.03;;;10.94;63.46
3260;BME280;68938;48.150;14.004;2023-04-27T01:46:52;98172.38;;;10.93;63.64
3260;BME280;68938;48.150;14.004;2023-04-27T01:49:19;98169.78;;;10.93;63.74
3260;BME280;68938;48.150;14.004;2023-04-27T01:51:45;98172.34;;;10.94;63.31
3260;BME280;68938;48.150;14.004;2023-04-27T01:54:12;98169.00;;;10.90;63.79
3260;BME280;68938;48.150;14.004;2023-04-27T01:56:39;98183.44;;;10.95;64.31
3260;BME280;68938;48.150;14.004;2023-04-27T01:59:06;98187.56;;;10.99;64.13
3260;BME280;68938;48.150;14.004;2023-04-27T02:01:33;98181.53;;;11.00;64.05
3260;BME280;68938;48.150;14.004;2023-04-27T02:04:00;98177.22;;;11.02;64.36
3260;BME280;68938;48.150;14.004;2023-04-27T02:06:27;98169.63;;;10.97;64.37
3260;BME280;68938;48.150;14.004;2023-04-27T02:08:54;98172.09;;;11.02;64.05
3260;BME280;68938;48.150;14.004;2023-04-27T02:11:21;98173.00;;;10.99;63.94
3260;BME280;68938;48.150;14.004;2023-04-27T02:13:48;98180.66;;;11.01;63.73
3260;BME280;68938;48.150;14.004;2023-04-27T02:16:15;98185.78;;;11.01;64.10
3260;BME280;68938;48.150;14.004;2023-04-27T02:18:42;98185.75;;;11.02;63.67
3260;BME280;68938;48.150;14.004;2023-04-27T02:21:09;98183.19;;;11.02;63.13
3260;BME280;68938;48.150;14.004;2023-04-27T02:23:36;98180.63;;;11.02;62.84
3260;BME280;68938;48.150;14.004;2023-04-27T02:26:03;98173.91;;;10.98;62.77
3260;BME280;68938;48.150;14.004;2023-04-27T02:28:30;98171.19;;;11.03;62.71
3260;BME280;68938;48.150;14.004;2023-04-27T02:30:58;98182.09;;;11.09;62.57
3260;BME280;68938;48.150;14.004;2023-04-27T02:33:24;98185.38;;;11.14;62.19
3260;BME280;68938;48.150;14.004;2023-04-27T02:35:51;98178.47;;;11.17;62.23
3260;BME280;68938;48.150;14.004;2023-04-27T02:38:18;98175.88;;;11.17;62.29
3260;BME280;68938;48.150;14.004;2023-04-27T02:40:45;98181.84;;;11.17;62.11
3260;BME280;68938;48.150;14.004;2023-04-27T02:43:12;98182.69;;;11.18;61.79
3260;BME280;68938;48.150;14.004;2023-04-27T02:45:39;98174.16;;;11.17;61.71
3260;BME280;68938;48.150;14.004;2023-04-27T02:48:06;98179.25;;;11.19;61.82
3260;BME280;68938;48.150;14.004;2023-04-27T02:50:33;98188.69;;;11.18;61.72
3260;BME280;68938;48.150;14.004;2023-04-27T02:52:59;98182.69;;;11.18;61.90
3260;BME280;68938;48.150;14.004;2023-04-27T02:55:26;98181.75;;;11.20;61.88
3260;BME280;68938;48.150;14.004;2023-04-27T02:57:53;98182.69;;;11.18;61.37
3260;BME280;68938;48.150;14.004;2023-04-27T03:00:20;98174.34;;;11.11;61.38
3260;BME280;68938;48.150;14.004;2023-04-27T03:02:47;98184.50;;;11.15;61.04
3260;BME280;68938;48.150;14.004;2023-04-27T03:05:15;98181.94;;;11.14;60.83
3260;BME280;68938;48.150;14.004;2023-04-27T03:07:42;98174.50;;;11.06;60.21
3260;BME280;68938;48.150;14.004;2023-04-27T03:10:09;98174.34;;;11.11;60.29
3260;BME280;68938;48.150;14.004;2023-04-27T03:12:36;98179.44;;;11.12;60.27
3260;BME280;68938;48.150;14.004;2023-04-27T03:15:03;98172.03;;;11.03;59.89
3260;BME280;68938;48.150;14.004;2023-04-27T03:17:31;98170.38;;;11.01;59.79
3260;BME280;68938;48.150;14.004;2023-04-27T03:19:58;98184.84;;;11.03;59.71
3260;BME280;68938;48.150;14.004;2023-04-27T03:22:24;98182.28;;;11.03;59.47
3260;BME280;68938;48.150;14.004;2023-04-27T03:24:51;98179.88;;;10.99;59.21
3260;BME280;68938;48.150;14.004;2023-04-27T03:27:18;98190.88;;;11.02;58.93
3260;BME280;68938;48.150;14.004;2023-04-27T03:29:45;98189.25;;;11.00;58.05
3260;BME280;68938;48.150;14.004;2023-04-27T03:32:12;98186.75;;;10.98;58.18
3260;BME280;68938;48.150;14.004;2023-04-27T03:34:39;98190.97;;;10.99;57.96
3260;BME280;68938;48.150;14.004;2023-04-27T03:37:06;98194.47;;;10.97;57.80
3260;BME280;68938;48.150;14.004;2023-04-27T03:39:33;98198.78;;;10.96;58.11
3260;BME280;68938;48.150;14.004;2023-04-27T03:41:59;98186.19;;;10.88;57.75
3260;BME280;68938;48.150;14.004;2023-04-27T03:44:26;98198.94;;;10.90;57.37
3260;BME280;68938;48.150;14.004;2023-04-27T03:46:53;98193.03;;;10.88;57.48
3260;BME280;68938;48.150;14.004;2023-04-27T03:49:20;98203.34;;;10.86;57.09
3260;BME280;68938;48.150;14.004;2023-04-27T03:51:47;98205.03;;;10.87;57.27
3260;BME280;68938;48.150;14.004;2023-04-27T03:54:14;98209.31;;;10.87;57.19
3260;BME280;68938;48.150;14.004;2023-04-27T03:56:41;98213.56;;;10.88;56.74
3260;BME280;68938;48.150;14.004;2023-04-27T03:59:08;98208.44;;;10.88;57.23
3260;BME280;68938;48.150;14.004;2023-04-27T04:01:35;98195.69;;;10.85;57.05
3260;BME280;68938;48.150;14.004;2023-04-27T04:04:02;98205.81;;;10.89;57.13
3260;BME280;68938;48.150;14.004;2023-04-27T04:06:29;98205.06;;;10.86;57.18
3260;BME280;68938;48.150;14.004;2023-04-27T04:08:56;98215.25;;;10.89;56.52
3260;BME280;68938;48.150;14.004;2023-04-27T04:11:23;98215.25;;;10.89;57.02
3260;BME280;68938;48.150;14.004;2023-04-27T04:13:50;98213.50;;;10.89;57.48
3260;BME280;68938;48.150;14.004;2023-04-27T04:16:17;98211.84;;;10.88;57.22
3260;BME280;68938;48.150;14.004;2023-04-27T04:18:44;98203.41;;;10.83;56.69
3260;BME280;68938;48.150;14.004;2023-04-27T04:21:11;98216.13;;;10.88;56.65
3260;BME280;68938;48.150;14.004;2023-04-27T04:23:38;98223.09;;;10.84;57.02
3260;BME280;68938;48.150;14.004;2023-04-27T04:26:05;98218.72;;;10.86;56.86
3260;BME280;68938;48.150;14.004;2023-04-27T04:28:32;98220.47;;;10.86;56.64
3260;BME280;68938;48.150;14.004;2023-04-27T04:31:00;98231.47;;;10.89;57.08
3260;BME280;68938;48.150;14.004;2023-04-27T04:33:27;98234.19;;;10.85;56.62
3260;BME280;68938;48.150;14.004;2023-04-27T04:35:54;98241.06;;;10.83;56.75
3260;BME280;68938;48.150;14.004;2023-04-27T04:38:21;98236.78;;;10.83;57.34
3260;BME280;68938;48.150;14.004;2023-04-27T04:40:48;98222.44;;;10.78;57.36
3260;BME280;68938;48.150;14.004;2023-04-27T04:43:15;98236.66;;;10.88;56.65
3260;BME280;68938;48.150;14.004;2023-04-27T04:45:41;98239.97;;;10.91;56.37
3260;BME280;68938;48.150;14.004;2023-04-27T04:48:08;98247.69;;;10.91;56.29
3260;BME280;68938;48.150;14.004;2023-04-27T04:50:35;98241.75;;;10.89;56.57
3260;BME280;68938;48.150;14.004;2023-04-27T04:53:02;98235.03;;;10.85;56.00
3260;BME280;68938;48.150;14.004;2023-04-27T04:55:29;98245.88;;;10.94;56.30
3260;BME280;68938;48.150;14.004;2023-04-27T04:57:56;98245.06;;;10.93;56.32
3260;BME280;68938;48.150;14.004;2023-04-27T05:00:23;98255.22;;;10.96;56.21
3260;BME280;68938;48.150;14.004;2023-04-27T05:02:50;98252.56;;;10.99;56.40
3260;BME280;68938;48.150;14.004;2023-04-27T05:05:17;98256.72;;;11.03;56.29
3260;BME280;68938;48.150;14.004;2023-04-27T05:07:44;98253.28;;;11.04;55.70
3260;BME280;68938;48.150;14.004;2023-04-27T05:10:11;98256.50;;;11.11;56.15
3260;BME280;68938;48.150;14.004;2023-04-27T05:12:38;98260.84;;;11.09;55.43
3260;BME280;68938;48.150;14.004;2023-04-27T05:15:05;98265.84;;;11.13;55.61
3260;BME280;68938;48.150;14.004;2023-04-27T05:17:33;98256.47;;;11.12;55.13
3260;BME280;68938;48.150;14.004;2023-04-27T05:20:00;98265.00;;;11.13;55.38
3260;BME280;68938;48.150;14.004;2023-04-27T05:22:27;98280.22;;;11.19;54.72
3260;BME280;68938;48.150;14.004;2023-04-27T05:24:54;98281.81;;;11.23;54.46
3260;BME280;68938;48.150;14.004;2023-04-27T05:27:21;98287.66;;;11.28;54.36
3260;BME280;68938;48.150;14.004;2023-04-27T05:29:47;98286.78;;;11.28;54.40
3260;BME280;68938;48.150;14.004;2023-04-27T05:32:14;98285.09;;;11.28;53.57
3260;BME280;68938;48.150;14.004;2023-04-27T05:34:41;98286.75;;;11.29;53.66
3260;BME280;68938;48.150;14.004;2023-04-27T05:37:08;98289.25;;;11.32;53.01
3260;BME280;68938;48.150;14.004;2023-04-27T05:39:35;98287.53;;;11.31;52.89
3260;BME280;68938;48.150;14.004;2023-04-27T05:42:02;98294.22;;;11.37;52.86
3260;BME280;68938;48.150;14.004;2023-04-27T05:44:29;98279.66;;;11.37;52.33
3260;BME280;68938;48.150;14.004;2023-04-27T05:46:56;98287.16;;;11.44;53.17
3260;BME280;68938;48.150;14.004;2023-04-27T05:49:23;98284.41;;;11.50;52.90
3260;BME280;68938;48.150;14.004;2023-04-27T05:51:50;98286.81;;;11.56;53.19
3260;BME280;68938;48.150;14.004;2023-04-27T05:54:16;98287.75;;;11.52;52.59
3260;BME280;68938;48.150;14.004;2023-04-27T05:56:43;98286.66;;;11.60;52.74
3260;BME280;68938;48.150;14.004;2023-04-27T05:59:11;98283.16;;;11.63;52.44
3260;BME280;68938;48.150;14.004;2023-04-27T06:01:38;98292.16;;;11.76;53.50
3260;BME280;68938;48.150;14.004;2023-04-27T06:04:05;98286.78;;;11.84;52.27
3260;BME280;68938;48.150;14.004;2023-04-27T06:06:32;98291.63;;;11.93;52.65
3260;BME280;68938;48.150;14.004;2023-04-27T06:09:00;98299.09;;;12.01;52.31
3260;BME280;68938;48.150;14.004;2023-04-27T06:11:27;98291.31;;;12.02;51.27
3260;BME280;68938;48.150;14.004;2023-04-27T06:13:54;98282.13;;;11.95;49.85
3260;BME280;68938;48.150;14.004;2023-04-27T06:16:22;98294.72;;;12.03;49.98
3260;BME280;68938;48.150;14.004;2023-04-27T06:18:49;98297.44;;;11.98;50.33
3260;BME280;68938;48.150;14.004;2023-04-27T06:21:16;98296.56;;;11.99;49.39
3260;BME280;68938;48.150;14.004;2023-04-27T06:23:43;98299.09;;;12.01;49.79
3260;BME280;68938;48.150;14.004;2023-04-27T06:26:10;98290.53;;;12.00;48.76
3260;BME280;68938;48.150;14.004;2023-04-27T06:28:37;98293.00;;;12.03;48.92
3260;BME280;68938;48.150;14.004;2023-04-27T06:31:04;98288.59;;;12.07;49.58
3260;BME280;68938;48.150;14.004;2023-04-27T06:33:31;98300.31;;;12.16;49.09
3260;BME280;68938;48.150;14.004;2023-04-27T06:35:59;98301.72;;;12.24;48.77
3260;BME280;68938;48.150;14.004;2023-04-27T06:38:26;98304.66;;;12.39;48.52
3260;BME280;68938;48.150;14.004;2023-04-27T06:40:53;98309.13;;;12.59;49.23
3260;BME280;68938;48.150;14.004;2023-04-27T06:43:20;98305.94;;;12.75;49.34
3260;BME280;68938;48.150;14.004;2023-04-27T06:45:48;98304.66;;;12.87;48.78
3260;BME280;68938;48.150;14.004;2023-04-27T06:48:15;98310.25;;;12.98;49.64
3260;BME280;68938;48.150;14.004;2023-04-27T06:50:42;98307.22;;;13.11;48.32
3260;BME280;68938;48.150;14.004;2023-04-27T06:53:09;98308.13;;;13.10;47.64
3260;BME280;68938;48.150;14.004;2023-04-27T06:55:36;98294.06;;;13.18;48.73
3260;BME280;68938;48.150;14.004;2023-04-27T06:58:03;98293.50;;;13.34;48.51
3260;BME280;68938;48.150;14.004;2023-04-27T07:00:31;98302.25;;;13.51;47.85
3260;BME280;68938;48.150;14.004;2023-04-27T07:02:58;98295.97;;;13.59;47.37
3260;BME280;68938;48.150;14.004;2023-04-27T07:05:25;98295.06;;;13.60;46.96
3260;BME280;68938;48.150;14.004;2023-04-27T07:07:52;98300.53;;;13.52;47.47
3260;BME280;68938;48.150;14.004;2023-04-27T07:10:19;98294.84;;;13.44;47.66
3260;BME280;68938;48.150;14.004;2023-04-27T07:12:46;98292.88;;;13.50;48.59
3260;BME280;68938;48.150;14.004;2023-04-27T07:15:12;98298.19;;;13.68;48.36
3260;BME280;68938;48.150;14.004;2023-04-27T07:17:39;98304.34;;;13.86;47.85
3260;BME280;68938;48.150;14.004;2023-04-27T07:20:07;98299.81;;;13.91;47.08
3260;BME280;68938;48.150;14.004;2023-04-27T07:22:34;98292.94;;;13.91;46.82
3260;BME280;68938;48.150;14.004;2023-04-27T07:25:01;98294.97;;;14.05;46.72
3260;BME280;68938;48.150;14.004;2023-04-27T07:27:28;98305.34;;;14.24;46.45
3260;BME280;68938;48.150;14.004;2023-04-27T07:29:55;98301.41;;;14.36;46.08
3260;BME280;68938;48.150;14.004;2023-04-27T07:32:22;98307.41;;;14.57;47.45
3260;BME280;68938;48.150;14.004;2023-04-27T07:34:49;98302.53;;;14.69;46.52
3260;BME280;68938;48.150;14.004;2023-04-27T07:37:20;98294.19;;;14.83;45.82
3260;BME280;68938;48.150;14.004;2023-04-27T07:39:49;98307.34;;;14.98;45.43
3260;BME280;68938;48.150;14.004;2023-04-27T07:42:16;98298.72;;;14.97;44.33
3260;BME280;68938;48.150;14.004;2023-04-27T07:44:44;98302.66;;;15.06;45.18
3260;BME280;68938;48.150;14.004;2023-04-27T07:47:11;98306.22;;;15.22;45.62
3260;BME280;68938;48.150;14.004;2023-04-27T07:49:37;98307.03;;;15.41;44.23
3260;BME280;68938;48.150;14.004;2023-04-27T07:52:04;98304.72;;;15.54;44.62
3260;BME280;68938;48.150;14.004;2023-04-27T07:54:31;98304.00;;;15.51;43.18
3260;BME280;68938;48.150;14.004;2023-04-27T07:56:58;98310.56;;;15.58;42.84
3260;BME280;68938;48.150;14.004;2023-04-27T07:59:28;98306.63;;;15.70;43.13
3260;BME280;68938;48.150;14.004;2023-04-27T08:01:56;98301.50;;;15.85;43.14
3260;BME280;68938;48.150;14.004;2023-04-27T08:04:43;98294.38;;;15.91;43.33
3260;BME280;68938;48.150;14.004;2023-04-27T08:07:10;98303.28;;;16.02;42.95
3260;BME280;68938;48.150;14.004;2023-04-27T08:09:38;98308.41;;;16.04;42.32
3260;BME280;68938;48.150;14.004;2023-04-27T08:12:05;98308.16;;;16.26;42.55
3260;BME280;68938;48.150;14.004;2023-04-27T08:14:35;98305.78;;;16.39;42.02
3260;BME280;68938;48.150;14.004;2023-04-27T08:17:02;98313.53;;;16.56;42.56
3260;BME280;68938;48.150;14.004;2023-04-27T08:19:29;98320.34;;;16.41;40.92
3260;BME280;68938;48.150;14.004;2023-04-27T08:21:56;98312.75;;;16.54;42.07
3260;BME280;68938;48.150;14.004;2023-04-27T08:24:23;98315.97;;;16.59;41.79
3260;BME280;68938;48.150;14.004;2023-04-27T08:26:50;98306.84;;;16.85;41.54
3260;BME280;68938;48.150;14.004;2023-04-27T08:29:17;98320.03;;;17.14;40.79
3260;BME280;68938;48.150;14.004;2023-04-27T08:31:53;98310.34;;;17.17;40.08
3260;BME280;68938;48.150;14.004;2023-04-27T08:34:22;98316.88;;;17.24;40.07
3260;BME280;68938;48.150;14.004;2023-04-27T08:36:49;98314.16;;;17.26;40.15
3260;BME280;68938;48.150;14.004;2023-04-27T08:39:16;98315.03;;;17.42;39.55
3260;BME280;68938;48.150;14.004;2023-04-27T08:41:44;98308.50;;;17.51;39.76
3260;BME280;68938;48.150;14.004;2023-04-27T08:44:11;98307.56;;;17.68;40.44
3260;BME280;68938;48.150;14.004;2023-04-27T08:46:38;98295.22;;;17.87;39.06
3260;BME280;68938;48.150;14.004;2023-04-27T08:49:05;98304.16;;;17.97;39.30
3260;BME280;68938;48.150;14.004;2023-04-27T08:51:33;98302.16;;;18.03;38.88
3260;BME280;68938;48.150;14.004;2023-04-27T08:54:00;98304.47;;;18.07;37.44
3260;BME280;68938;48.150;14.004;2023-04-27T08:56:28;98297.47;;;18.23;38.24
3260;BME280;68938;48.150;14.004;2023-04-27T08:58:57;98295.81;;;18.22;37.58
3260;BME280;68938;48.150;14.004;2023-04-27T09:01:25;98301.56;;;18.42;37.79
3260;BME280;68938;48.150;14.004;2023-04-27T09:03:56;98305.94;;;18.56;36.98
3260;BME280;68938;48.150;14.004;2023-04-27T09:06:30;98295.19;;;18.62;35.92
3260;BME280;68938;48.150;14.004;2023-04-27T09:08:58;98300.78;;;18.70;37.20
3260;BME280;68938;48.150;14.004;2023-04-27T09:11:31;98295.66;;;18.54;36.51
3260;BME280;68938;48.150;14.004;2023-04-27T09:14:02;98297.44;;;18.68;37.51
3260;BME280;68938;48.150;14.004;2023-04-27T09:16:41;98293.03;;;18.84;36.00
3260;BME280;68938;48.150;14.004;2023-04-27T09:19:09;98289.19;;;18.90;37.48
3260;BME280;68938;48.150;14.004;2023-04-27T09:21:36;98287.34;;;18.63;36.92
3260;BME280;68938;48.150;14.004;2023-04-27T09:24:12;98285.28;;;18.83;36.34
3260;BME280;68938;48.150;14.004;2023-04-27T09:26:39;98288.00;;;18.81;35.27
3260;BME280;68938;48.150;14.004;2023-04-27T09:29:06;98284.56;;;18.81;35.66
3260;BME280;68938;48.150;14.004;2023-04-27T09:31:34;98284.75;;;18.92;36.04
3260;BME280;68938;48.150;14.004;2023-04-27T09:34:02;98284.91;;;19.03;36.72
3260;BME280;68938;48.150;14.004;2023-04-27T09:36:30;98281.19;;;19.07;34.57
3260;BME280;68938;48.150;14.004;2023-04-27T09:39:01;98280.47;;;18.91;34.58
3260;BME280;68938;48.150;14.004;2023-04-27T09:41:31;98279.97;;;19.13;36.43
3260;BME280;68938;48.150;14.004;2023-04-27T09:43:58;98285.59;;;19.34;33.33
3260;BME280;68938;48.150;14.004;2023-04-27T09:46:27;98278.28;;;19.53;32.37
3260;BME280;68938;48.150;14.004;2023-04-27T09:48:55;98273.72;;;19.57;31.42
3260;BME280;68938;48.150;14.004;2023-04-27T09:51:23;98268.19;;;19.49;31.32
3260;BME280;68938;48.150;14.004;2023-04-27T09:53:55;98273.06;;;19.26;29.78
3260;BME280;68938;48.150;14.004;2023-04-27T10:02:16;98271.41;;;19.25;29.67
3260;BME280;68938;48.150;14.004;2023-04-27T10:06:10;98270.47;;;19.26;30.66
3260;BME280;68938;48.150;14.004;2023-04-27T10:08:05;98261.53;;;19.30;29.59
3260;BME280;68938;48.150;14.004;2023-04-27T10:10:51;98269.91;;;18.94;31.91
3260;BME280;68938;48.150;14.004;2023-04-27T10:13:23;98261.44;;;18.62;30.87
3260;BME280;68938;48.150;14.004;2023-04-27T10:15:52;98266.28;;;18.82;31.19
3260;BME280;68938;48.150;14.004;2023-04-27T10:18:29;98264.59;;;18.67;30.61
3260;BME280;68938;48.150;14.004;2023-04-27T10:21:08;98262.38;;;18.75;30.59
3260;BME280;68938;48.150;14.004;2023-04-27T10:23:45;98268.03;;;18.96;32.07
3260;BME280;68938;48.150;14.004;2023-04-27T10:26:21;98249.00;;;18.96;33.40
3260;BME280;68938;48.150;14.004;2023-04-27T10:29:09;98252.44;;;18.82;33.57
3260;BME280;68938;48.150;14.004;2023-04-27T10:31:42;98259.88;;;18.88;34.04
3260;BME280;68938;48.150;14.004;2023-04-27T10:34:15;98243.53;;;18.57;34.00
3260;BME280;68938;48.150;14.004;2023-04-27T10:36:46;98250.00;;;19.34;32.70
3260;BME280;68938;48.150;14.004;2023-04-27T10:39:17;98245.34;;;19.39;32.69
3260;BME280;68938;48.150;14.004;2023-04-27T10:41:53;98252.06;;;19.56;31.28
3260;BME280;68938;48.150;14.004;2023-04-27T10:44:27;98248.28;;;19.75;31.96
3260;BME280;68938;48.150;14.004;2023-04-27T10:47:16;98244.06;;;19.86;31.27
3260;BME280;68938;48.150;14.004;2023-04-27T10:49:43;98242.19;;;19.88;30.96
3260;BME280;68938;48.150;14.004;2023-04-27T10:52:10;98244.78;;;19.88;30.70
3260;BME280;68938;48.150;14.004;2023-04-27T10:54:37;98246.78;;;19.98;29.95
3260;BME280;68938;48.150;14.004;2023-04-27T10:57:09;98235.97;;;19.37;30.98
3260;BME280;68938;48.150;14.004;2023-04-27T10:59:48;98228.50;;;19.72;33.04
3260;BME280;68938;48.150;14.004;2023-04-27T11:02:23;98232.91;;;19.84;30.20
3260;BME280;68938;48.150;14.004;2023-04-27T11:04:52;98235.50;;;19.84;31.10
3260;BME280;68938;48.150;14.004;2023-04-27T11:07:26;98222.63;;;20.08;31.44
3260;BME280;68938;48.150;14.004;2023-04-27T11:09:54;98231.06;;;20.25;32.47
3260;BME280;68938;48.150;14.004;2023-04-27T11:12:21;98232.94;;;20.35;30.76
3260;BME280;68938;48.150;14.004;2023-04-27T11:14:48;98228.34;;;20.26;30.27
3260;BME280;68938;48.150;14.004;2023-04-27T11:17:15;98233.56;;;20.26;29.92
3260;BME280;68938;48.150;14.004;2023-04-27T11:19:46;98220.53;;;20.26;30.35
3260;BME280;68938;48.150;14.004;2023-04-27T11:22:24;98227.31;;;20.16;30.45
3260;BME280;68938;48.150;14.004;2023-04-27T11:24:52;98231.25;;;19.83;30.63
3260;BME280;68938;48.150;14.004;2023-04-27T11:27:19;98231.34;;;19.82;30.90
3260;BME280;68938;48.150;14.004;2023-04-27T11:29:45;98220.81;;;19.44;30.80
3260;BME280;68938;48.150;14.004;2023-04-27T11:32:19;98220.41;;;19.77;31.66
3260;BME280;68938;48.150;14.004;2023-04-27T11:34:51;98222.28;;;19.87;32.35
3260;BME280;68938;48.150;14.004;2023-04-27T11:37:23;98219.34;;;19.67;31.68
3260;BME280;68938;48.150;14.004;2023-04-27T11:39:58;98216.56;;;19.55;32.61
3260;BME280;68938;48.150;14.004;2023-04-27T11:42:27;98209.16;;;19.76;32.40
3260;BME280;68938;48.150;14.004;2023-04-27T11:45:05;98213.56;;;20.01;31.58
3260;BME280;68938;48.150;14.004;2023-04-27T11:47:33;98219.63;;;20.15;32.32
3260;BME280;68938;48.150;14.004;2023-04-27T11:50:04;98213.34;;;20.30;31.58
3260;BME280;68938;48.150;14.004;2023-04-27T11:52:36;98214.59;;;19.99;31.68
3260;BME280;68938;48.150;14.004;2023-04-27T11:55:05;98214.38;;;20.02;31.25
3260;BME280;68938;48.150;14.004;2023-04-27T11:57:34;98222.53;;;19.97;30.80
3260;BME280;68938;48.150;14.004;2023-04-27T12:00:03;98216.78;;;19.92;32.22
3260;BME280;68938;48.150;14.004;2023-04-27T12:02:31;98218.47;;;19.93;32.84
3260;BME280;68938;48.150;14.004;2023-04-27T12:04:58;98223.47;;;20.22;32.11
3260;BME280;68938;48.150;14.004;2023-04-27T12:07:26;98222.22;;;20.27;31.09
3260;BME280;68938;48.150;14.004;2023-04-27T12:09:53;98213.69;;;20.38;30.67
3260;BME280;68938;48.150;14.004;2023-04-27T12:12:20;98211.97;;;20.37;31.23
3260;BME280;68938;48.150;14.004;2023-04-27T12:14:49;98215.97;;;20.55;30.52
3260;BME280;68938;48.150;14.004;2023-04-27T12:17:17;98214.06;;;20.70;31.26
3260;BME280;68938;48.150;14.004;2023-04-27T12:19:44;98212.22;;;20.59;30.78
3260;BME280;68938;48.150;14.004;2023-04-27T12:22:11;98209.00;;;20.56;30.76
3260;BME280;68938;48.150;14.004;2023-04-27T12:24:38;98213.38;;;20.55;30.04
3260;BME280;68938;48.150;14.004;2023-04-27T12:27:05;98202.81;;;20.44;30.13
3260;BME280;68938;48.150;14.004;2023-04-27T12:29:32;98211.38;;;20.46;29.58
3260;BME280;68938;48.150;14.004;2023-04-27T12:31:59;98205.84;;;20.38;29.88
3260;BME280;68938;48.150;14.004;2023-04-27T12:34:26;98212.63;;;20.15;30.33
3260;BME280;68938;48.150;14.004;2023-04-27T12:36:53;98222.13;;;20.29;30.54
3260;BME280;68938;48.150;14.004;2023-04-27T12:39:22;98211.81;;;20.15;29.92
3260;BME280;68938;48.150;14.004;2023-04-27T12:41:49;98211.06;;;20.25;29.97
3260;BME280;68938;48.150;14.004;2023-04-27T12:44:17;98216.59;;;20.08;30.03
3260;BME280;68938;48.150;14.004;2023-04-27T12:46:46;98214.50;;;20.13;29.83
3260;BME280;68938;48.150;14.004;2023-04-27T12:49:13;98218.34;;;20.20;29.38
3260;BME280;68938;48.150;14.004;2023-04-27T12:51:40;98214.19;;;20.43;29.00
3260;BME280;68938;48.150;14.004;2023-04-27T12:54:08;98215.13;;;20.29;29.85
3260;BME280;68938;48.150;14.004;2023-04-27T12:56:36;98213.25;;;19.93;29.81
3260;BME280;68938;48.150;14.004;2023-04-27T12:59:03;98212.22;;;20.21;31.55
3260;BME280;68938;48.150;14.004;2023-04-27T13:01:29;98207.09;;;20.32;30.80
3260;BME280;68938;48.150;14.004;2023-04-27T13:04:01;98204.38;;;20.47;30.47
3260;BME280;68938;48.150;14.004;2023-04-27T13:06:30;98205.41;;;20.70;29.87
3260;BME280;68938;48.150;14.004;2023-04-27T13:08:58;98198.00;;;20.76;29.59
3260;BME280;68938;48.150;14.004;2023-04-27T13:11:25;98192.09;;;20.98;30.17